map of CVN home
CVN - Airport
Location
City:  Clovis, New Mexico, United States
Name:Clovis Municipal Airport
ICAO:KCVN
IATA:CVN
FAA LID:CVN

Details
Type:Airport (Part 139 Class III)
Use:Public/Civil
Latitude:3425'36"N (34.426590)
Longitude:10304'39"W (-103.077579)
Datum:WGS 1984
Elevation:4215 ft (1285 m)
Variation:6.72E (WMM2015v2 magnetic declination)
-0.10 annual change
Runways:3
Longest:7200 × 150 ft (2195 × 45.5 m), paved

Time
Time Zone:UTC-7 (DST-6)
Local Time:

Weather
METAR:KCVN 041356Z AUTO 00000KT 10SM CLR 01/M01 A2990 RMK AO2 SLP121 T00061011 FZRANO

Related Locations
Nearby:
Farthest:RRG: 11128 mi / 17909 km
Plaine Corail [Sir Gatan Duval Airport (Plaine Corail Airport)], Rodrigues Island, MU

Find:

   beyond  
but within

Other Information
Maps:
NOTAMs:
Links:
Sources:

  
  • flag of United States
  • flag of New Mexico
  

Sectional Chart

Flight Planning
at skyvector.com

Satellite Image

Google Maps Satellite view

 

Copyright © 2004-2019 Karl L. Swartz. All rights reserved.
The Great Circle Mapper name and logo are trademarks of the Great Circle Mapper.
All other trademarks mentioned herein belong to their respective owners.
Please see credits for attibutions and further copyright information.

  Follow gcmap on Facebook Follow gcmap on Twitter GCmap on LinkedIn

hCard Microformat

Geo Microformat